Terminal Aerodrome Forecast
Issued by NWS

Home | Current Version | Previous Version | Text Only | Print | Product List | Glossary On
Versions: 1 2 3 4 5 6 7 8 9 10 11 12 13
646
FTUS44 KTSA 260520
TAFXNA
TAF
KXNA 260520Z 2606/2706 01008KT P6SM BKN050
      TEMPO 2606/2610 -RA OVC025
     FM261100 01006KT P6SM OVC080
     FM261700 36007KT P6SM SKC=

USA.gov is the U.S. government's official web portal to all federal, state and local government web resources and services.